createdAt,value
2017-12-06T00:01:03.786Z,52.70
2017-12-06T00:02:08.661Z,52.60
2017-12-06T00:03:13.344Z,52.60
2017-12-06T00:04:18.091Z,52.70
2017-12-06T00:05:22.948Z,52.70
2017-12-06T00:06:27.739Z,52.60
2017-12-06T00:07:32.443Z,52.70
2017-12-06T00:08:37.185Z,52.70
2017-12-06T00:09:41.885Z,52.70
2017-12-06T00:10:46.598Z,52.70
2017-12-06T00:11:51.321Z,52.70
2017-12-06T00:12:56.162Z,52.70
2017-12-06T00:14:00.869Z,52.70
2017-12-06T00:15:05.458Z,52.70
2017-12-06T00:16:10.287Z,52.70
2017-12-06T00:17:15.135Z,52.70
2017-12-06T00:18:19.853Z,52.70
2017-12-06T00:19:24.367Z,52.70
2017-12-06T00:20:29.281Z,52.70
2017-12-06T00:21:34.482Z,52.70
2017-12-06T00:22:39.198Z,52.70
2017-12-06T00:23:44.063Z,52.70
2017-12-06T00:24:49.188Z,52.70
2017-12-06T00:25:53.746Z,52.70
2017-12-06T00:26:58.491Z,52.70
2017-12-06T00:28:03.431Z,52.70
2017-12-06T00:29:08.306Z,52.70
2017-12-06T00:30:13.183Z,52.70
2017-12-06T00:31:18.121Z,52.70
2017-12-06T00:32:22.730Z,52.70
2017-12-06T00:33:27.620Z,52.70
2017-12-06T00:34:32.217Z,52.70
2017-12-06T00:35:36.793Z,52.70
2017-12-06T00:36:41.511Z,52.70
2017-12-06T00:37:46.369Z,52.70
2017-12-06T00:38:51.053Z,52.70
2017-12-06T00:39:55.589Z,52.80
2017-12-06T00:41:00.293Z,52.70
2017-12-06T00:42:05.057Z,53.40
2017-12-06T00:43:09.939Z,52.80
2017-12-06T00:44:14.465Z,52.80
2017-12-06T00:45:19.186Z,52.80
2017-12-06T00:46:23.915Z,52.80
2017-12-06T00:47:28.779Z,52.80
2017-12-06T00:48:33.731Z,52.80
2017-12-06T00:49:38.442Z,52.80
2017-12-06T00:50:43.032Z,52.80
2017-12-06T00:51:47.746Z,52.80
2017-12-06T00:52:52.467Z,52.80
2017-12-06T00:53:57.050Z,52.80
2017-12-06T00:55:01.963Z,52.80
2017-12-06T00:56:06.691Z,52.80
2017-12-06T00:57:11.228Z,52.80
2017-12-06T00:58:15.959Z,52.80
2017-12-06T00:59:20.672Z,52.80
2017-12-06T01:00:25.192Z,52.80
2017-12-06T01:01:29.845Z,52.90
2017-12-06T01:02:35.047Z,52.90
2017-12-06T01:03:39.783Z,52.90
2017-12-06T01:04:44.345Z,52.90
2017-12-06T01:05:49.157Z,52.90
2017-12-06T01:06:53.823Z,52.90
2017-12-06T01:07:58.697Z,52.90
2017-12-06T01:09:03.463Z,52.90
2017-12-06T01:10:08.178Z,52.90
2017-12-06T01:11:12.852Z,52.90
2017-12-06T01:12:17.511Z,52.90
2017-12-06T01:13:22.375Z,52.90
2017-12-06T01:14:26.878Z,52.90
2017-12-06T01:15:31.564Z,52.90
2017-12-06T01:16:36.217Z,52.90
2017-12-06T01:17:40.891Z,52.90
2017-12-06T01:18:45.421Z,52.90
2017-12-06T01:19:50.342Z,52.90
2017-12-06T01:20:55.014Z,52.90
2017-12-06T01:21:59.585Z,52.90
2017-12-06T01:23:04.141Z,52.90
2017-12-06T01:24:08.986Z,52.90
2017-12-06T01:25:13.829Z,52.90
2017-12-06T01:26:18.761Z,52.90
2017-12-06T01:27:23.522Z,52.90
2017-12-06T01:28:28.196Z,52.90
2017-12-06T01:29:32.722Z,52.90
2017-12-06T01:30:37.594Z,52.90
2017-12-06T01:31:42.163Z,52.90
2017-12-06T01:32:46.901Z,52.90
2017-12-06T01:33:51.777Z,52.90
2017-12-06T01:34:56.940Z,52.90
2017-12-06T01:36:01.541Z,52.90
2017-12-06T01:37:06.168Z,52.90
2017-12-06T01:38:10.861Z,52.90
2017-12-06T01:39:15.608Z,52.90
2017-12-06T01:40:20.390Z,52.90
2017-12-06T01:41:24.996Z,52.90
2017-12-06T01:42:30.374Z,52.90
2017-12-06T01:43:35.073Z,52.90
2017-12-06T01:44:39.662Z,52.90
2017-12-06T01:45:44.397Z,52.90
2017-12-06T01:46:49.154Z,52.90
2017-12-06T01:47:53.686Z,52.90
2017-12-06T01:48:58.207Z,53.00
2017-12-06T01:50:02.960Z,53.00
2017-12-06T01:51:07.665Z,53.00
2017-12-06T01:52:12.731Z,53.00
2017-12-06T01:53:17.288Z,53.00
2017-12-06T01:54:21.987Z,53.00
2017-12-06T01:55:27.528Z,53.00
2017-12-06T01:56:32.522Z,53.00
2017-12-06T01:57:37.219Z,53.00
2017-12-06T01:58:42.151Z,53.00
2017-12-06T01:59:46.907Z,53.00
2017-12-06T02:00:51.564Z,53.00
2017-12-06T02:01:56.305Z,53.00
2017-12-06T02:03:01.214Z,53.00
2017-12-06T02:04:05.916Z,53.00
2017-12-06T02:05:10.483Z,53.00
2017-12-06T02:06:15.159Z,53.00
2017-12-06T02:07:19.755Z,53.00
2017-12-06T02:08:24.446Z,53.00
2017-12-06T02:09:29.301Z,53.00
2017-12-06T02:10:34.038Z,53.00
2017-12-06T02:11:38.581Z,53.10
2017-12-06T02:12:43.979Z,53.00
2017-12-06T02:13:48.774Z,53.00
2017-12-06T02:14:53.485Z,53.00
2017-12-06T02:15:58.441Z,53.00
2017-12-06T02:17:03.146Z,53.00
2017-12-06T02:18:07.909Z,53.10
2017-12-06T02:19:12.699Z,53.00
2017-12-06T02:20:17.634Z,53.00
2017-12-06T02:21:22.396Z,53.00
2017-12-06T02:22:27.141Z,53.00
2017-12-06T02:23:31.974Z,53.00
2017-12-06T02:24:36.700Z,53.10
2017-12-06T02:25:41.373Z,53.10
2017-12-06T02:26:45.925Z,53.00
2017-12-06T02:27:50.613Z,53.00
2017-12-06T02:28:55.436Z,53.10
2017-12-06T02:30:00.130Z,53.10
2017-12-06T02:31:04.847Z,53.10
2017-12-06T02:32:09.598Z,53.10
2017-12-06T02:33:14.144Z,53.10
2017-12-06T02:34:18.963Z,53.10
2017-12-06T02:35:23.681Z,53.10
2017-12-06T02:36:28.398Z,53.10
2017-12-06T02:37:33.033Z,53.10
2017-12-06T02:38:37.604Z,53.10
2017-12-06T02:39:42.399Z,53.10
2017-12-06T02:40:46.971Z,53.10
2017-12-06T02:41:51.549Z,53.10
2017-12-06T02:42:56.222Z,53.10
2017-12-06T02:44:01.062Z,53.10
2017-12-06T02:45:05.763Z,53.10
2017-12-06T02:46:10.495Z,53.70
2017-12-06T02:47:15.318Z,53.10
2017-12-06T02:48:19.844Z,53.10
2017-12-06T02:49:24.531Z,53.10
2017-12-06T02:50:29.203Z,53.00
2017-12-06T02:51:33.703Z,53.00
2017-12-06T02:52:38.393Z,53.00
2017-12-06T02:53:43.236Z,53.10
2017-12-06T02:54:48.615Z,53.00
2017-12-06T02:55:53.284Z,53.00
2017-12-06T02:56:57.999Z,53.00
2017-12-06T02:58:02.762Z,53.00
2017-12-06T02:59:07.368Z,53.00
2017-12-06T03:00:12.064Z,52.90
2017-12-06T03:01:16.762Z,53.00
2017-12-06T03:02:21.572Z,52.90
2017-12-06T03:03:26.362Z,53.00
2017-12-06T03:04:31.184Z,53.00
2017-12-06T03:05:35.968Z,53.00
2017-12-06T03:06:40.525Z,53.00
2017-12-06T03:07:45.364Z,53.00
2017-12-06T03:08:50.060Z,53.00
2017-12-06T03:09:54.879Z,53.00
2017-12-06T03:10:59.437Z,53.00
2017-12-06T03:12:03.974Z,53.00
2017-12-06T03:13:08.663Z,52.90
2017-12-06T03:14:13.557Z,53.10
2017-12-06T03:15:18.418Z,53.10
2017-12-06T03:16:23.019Z,53.10
2017-12-06T03:17:27.841Z,53.20
2017-12-06T03:18:32.390Z,53.30
2017-12-06T03:19:37.067Z,53.30
2017-12-06T03:20:41.644Z,53.30
2017-12-06T03:21:46.488Z,53.30
2017-12-06T03:22:51.217Z,53.40
2017-12-06T03:23:55.871Z,53.30
2017-12-06T03:25:00.674Z,53.30
2017-12-06T03:26:05.447Z,53.40
2017-12-06T03:27:10.150Z,53.40
2017-12-06T03:28:14.674Z,53.40
2017-12-06T03:29:19.392Z,53.40
2017-12-06T03:30:23.950Z,53.40
2017-12-06T03:31:28.637Z,53.40
2017-12-06T03:32:33.424Z,53.40
2017-12-06T03:33:38.517Z,53.40
2017-12-06T03:34:43.159Z,53.50
2017-12-06T03:35:48.009Z,53.50
2017-12-06T03:36:53.354Z,53.40
2017-12-06T03:37:58.232Z,53.50
2017-12-06T03:39:03.226Z,53.50
2017-12-06T03:40:07.930Z,53.50
2017-12-06T03:41:12.683Z,53.50
2017-12-06T03:42:17.449Z,53.50
2017-12-06T03:43:22.224Z,53.50
2017-12-06T03:44:27.057Z,53.50
2017-12-06T03:45:31.641Z,53.50
2017-12-06T03:46:36.213Z,53.50
2017-12-06T03:47:40.831Z,53.50
2017-12-06T03:48:45.568Z,53.50
2017-12-06T03:49:50.299Z,53.50
2017-12-06T03:50:55.191Z,53.50
2017-12-06T03:51:59.935Z,53.50
2017-12-06T03:53:04.661Z,53.50
2017-12-06T03:54:09.226Z,53.50
2017-12-06T03:55:14.074Z,53.50
2017-12-06T03:56:18.805Z,53.50
2017-12-06T03:57:23.330Z,53.50
2017-12-06T03:58:27.924Z,53.50
2017-12-06T03:59:32.623Z,53.50
2017-12-06T04:00:37.309Z,53.60
2017-12-06T04:01:42.007Z,53.60
2017-12-06T04:02:46.728Z,53.60
2017-12-06T04:03:51.437Z,53.60
2017-12-06T04:04:56.264Z,53.60
2017-12-06T04:06:00.952Z,53.60
2017-12-06T04:07:05.895Z,53.60
2017-12-06T04:08:10.583Z,53.60
2017-12-06T04:09:15.264Z,53.60
2017-12-06T04:10:20.121Z,53.60
2017-12-06T04:11:24.822Z,53.60
2017-12-06T04:12:29.504Z,53.60
2017-12-06T04:13:35.011Z,53.60
2017-12-06T04:14:40.128Z,53.60
2017-12-06T04:15:44.809Z,53.60
2017-12-06T04:16:49.540Z,53.60
2017-12-06T04:17:54.395Z,53.60
2017-12-06T04:18:59.235Z,53.60
2017-12-06T04:20:03.819Z,53.60
2017-12-06T04:21:08.553Z,53.60
2017-12-06T04:22:13.261Z,53.60
2017-12-06T04:23:18.126Z,53.60
2017-12-06T04:24:23.027Z,53.60
2017-12-06T04:25:27.736Z,53.60
2017-12-06T04:26:32.295Z,53.60
2017-12-06T04:27:37.196Z,53.60
2017-12-06T04:28:41.752Z,53.70
2017-12-06T04:29:46.443Z,53.60
2017-12-06T04:30:50.995Z,53.60
2017-12-06T04:31:55.720Z,53.60
2017-12-06T04:33:00.380Z,53.70
2017-12-06T04:34:04.941Z,53.60
2017-12-06T04:35:09.647Z,53.70
2017-12-06T04:36:14.520Z,53.60
2017-12-06T04:37:19.240Z,53.70
2017-12-06T04:38:23.927Z,53.70
2017-12-06T04:39:28.894Z,53.70
2017-12-06T04:40:33.644Z,53.70
2017-12-06T04:41:38.378Z,53.70
2017-12-06T04:42:43.273Z,53.70
2017-12-06T04:43:48.152Z,53.70
2017-12-06T04:44:52.867Z,53.70
2017-12-06T04:45:57.970Z,53.70
2017-12-06T04:47:02.825Z,53.70
2017-12-06T04:48:07.703Z,53.60
2017-12-06T04:49:12.230Z,53.70
2017-12-06T04:50:16.999Z,54.30
2017-12-06T04:51:21.917Z,53.70
2017-12-06T04:52:26.845Z,53.70
2017-12-06T04:53:31.554Z,53.70
2017-12-06T04:54:36.286Z,53.70
2017-12-06T04:55:40.999Z,53.70
2017-12-06T04:56:45.810Z,53.70
2017-12-06T04:57:50.382Z,54.30
2017-12-06T04:58:55.274Z,53.70
2017-12-06T05:00:00.068Z,53.70
2017-12-06T05:01:04.663Z,53.70
2017-12-06T05:02:09.249Z,53.70
2017-12-06T05:03:13.856Z,53.70
2017-12-06T05:04:18.465Z,53.70
2017-12-06T05:05:23.225Z,53.70
2017-12-06T05:06:27.919Z,53.70
2017-12-06T05:07:32.787Z,53.80
2017-12-06T05:08:37.519Z,53.80
2017-12-06T05:09:42.407Z,53.80
2017-12-06T05:10:47.226Z,53.80
2017-12-06T05:11:51.928Z,53.80
2017-12-06T05:12:56.631Z,53.80
2017-12-06T05:14:01.528Z,53.80
2017-12-06T05:15:06.168Z,53.80
2017-12-06T05:16:10.847Z,53.80
2017-12-06T05:17:15.546Z,53.80
2017-12-06T05:18:20.118Z,53.80
2017-12-06T05:19:25.059Z,54.40
2017-12-06T05:20:29.761Z,53.80
2017-12-06T05:21:34.584Z,53.80
2017-12-06T05:22:39.338Z,53.80
2017-12-06T05:23:44.054Z,53.80
2017-12-06T05:24:48.976Z,53.80
2017-12-06T05:25:53.690Z,53.80
2017-12-06T05:26:58.425Z,53.80
2017-12-06T05:28:02.989Z,53.80
2017-12-06T05:29:07.741Z,53.80
2017-12-06T05:30:12.441Z,53.80
2017-12-06T05:31:17.212Z,53.80
2017-12-06T05:32:22.109Z,53.80
2017-12-06T05:33:26.983Z,53.80
2017-12-06T05:34:31.946Z,53.80
2017-12-06T05:35:36.560Z,53.80
2017-12-06T05:36:41.820Z,53.80
2017-12-06T05:37:46.556Z,53.80
2017-12-06T05:38:51.513Z,53.80
2017-12-06T05:39:56.259Z,53.80
2017-12-06T05:41:00.795Z,53.80
2017-12-06T05:42:05.676Z,53.80
2017-12-06T05:43:10.251Z,53.80
2017-12-06T05:44:14.964Z,53.80
2017-12-06T05:45:19.913Z,53.80
2017-12-06T05:46:24.638Z,53.80
2017-12-06T05:47:29.341Z,53.70
2017-12-06T05:48:34.250Z,53.80
2017-12-06T05:49:39.139Z,53.80
2017-12-06T05:50:43.999Z,53.80
2017-12-06T05:51:48.989Z,53.80
2017-12-06T05:52:53.774Z,53.80
2017-12-06T05:53:58.651Z,53.80
2017-12-06T05:55:03.628Z,53.80
2017-12-06T05:56:08.560Z,53.80
2017-12-06T05:57:13.498Z,53.80
2017-12-06T05:58:18.429Z,53.80
2017-12-06T05:59:23.154Z,53.80
2017-12-06T06:00:27.897Z,53.80
2017-12-06T06:01:32.618Z,53.80
2017-12-06T06:02:37.310Z,53.80
2017-12-06T06:03:41.986Z,53.80
2017-12-06T06:04:46.583Z,53.80
2017-12-06T06:05:51.466Z,53.80
2017-12-06T06:06:56.254Z,53.80
2017-12-06T06:08:00.931Z,53.80
2017-12-06T06:09:05.645Z,53.80
2017-12-06T06:10:10.306Z,53.70
2017-12-06T06:11:15.149Z,53.60
2017-12-06T06:12:20.254Z,53.60
2017-12-06T06:13:24.977Z,53.60
2017-12-06T06:14:29.810Z,53.50
2017-12-06T06:15:34.593Z,53.50
2017-12-06T06:16:39.424Z,53.50
2017-12-06T06:17:44.168Z,53.50
2017-12-06T06:18:49.023Z,53.50
2017-12-06T06:19:53.562Z,53.40
2017-12-06T06:20:58.336Z,53.40
2017-12-06T06:22:03.123Z,53.40
2017-12-06T06:23:08.003Z,53.40
2017-12-06T06:24:12.550Z,53.40
2017-12-06T06:25:17.180Z,53.40
2017-12-06T06:26:21.868Z,53.40
2017-12-06T06:27:26.688Z,53.30
2017-12-06T06:28:31.349Z,53.30
2017-12-06T06:29:36.050Z,53.90
2017-12-06T06:30:40.714Z,53.30
2017-12-06T06:31:45.273Z,53.30
2017-12-06T06:32:50.918Z,53.20
2017-12-06T06:33:55.592Z,53.20
2017-12-06T06:35:00.228Z,53.20
2017-12-06T06:36:04.900Z,53.20
2017-12-06T06:37:09.711Z,53.20
2017-12-06T06:38:14.365Z,53.20
2017-12-06T06:39:19.157Z,53.20
2017-12-06T06:40:23.726Z,53.20
2017-12-06T06:41:28.429Z,53.10
2017-12-06T06:42:33.412Z,53.10
2017-12-06T06:43:38.078Z,53.10
2017-12-06T06:44:42.897Z,53.10
2017-12-06T06:45:47.612Z,53.10
2017-12-06T06:46:52.282Z,53.10
2017-12-06T06:47:56.998Z,53.10
2017-12-06T06:49:01.857Z,53.10
2017-12-06T06:50:06.479Z,53.10
2017-12-06T06:51:11.063Z,53.10
2017-12-06T06:52:15.751Z,53.10
2017-12-06T06:53:20.626Z,53.70
2017-12-06T06:54:25.204Z,53.10
2017-12-06T06:55:30.059Z,53.00
2017-12-06T06:56:34.666Z,53.00
2017-12-06T06:57:39.389Z,52.90
2017-12-06T06:58:44.153Z,52.90
2017-12-06T06:59:48.839Z,52.90
2017-12-06T07:00:53.735Z,52.80
2017-12-06T07:01:58.299Z,52.80
2017-12-06T07:03:03.183Z,52.80
2017-12-06T07:04:07.912Z,52.30
2017-12-06T07:05:12.592Z,51.00
2017-12-06T07:06:17.766Z,49.70
2017-12-06T07:07:23.808Z,48.70
2017-12-06T07:08:28.866Z,48.00
2017-12-06T07:09:33.563Z,47.60
2017-12-06T07:10:38.289Z,47.40
2017-12-06T07:11:42.890Z,46.90
2017-12-06T07:12:47.748Z,46.50
2017-12-06T07:13:52.478Z,46.90
2017-12-06T07:14:57.005Z,45.90
2017-12-06T07:16:01.684Z,45.80
2017-12-06T07:17:06.425Z,45.70
2017-12-06T07:18:10.990Z,45.30
2017-12-06T07:19:15.705Z,45.20
2017-12-06T07:20:20.514Z,44.80
2017-12-06T07:21:25.109Z,44.80
2017-12-06T07:22:29.836Z,44.80
2017-12-06T07:23:34.429Z,44.80
2017-12-06T07:24:38.954Z,44.60
2017-12-06T07:25:43.680Z,44.40
2017-12-06T07:26:48.242Z,44.20
2017-12-06T07:27:53.048Z,44.40
2017-12-06T07:28:57.592Z,44.30
2017-12-06T07:30:02.259Z,44.50
2017-12-06T07:31:07.137Z,44.20
2017-12-06T07:32:11.971Z,44.10
2017-12-06T07:33:16.625Z,44.00
2017-12-06T07:34:21.400Z,43.90
2017-12-06T07:35:26.098Z,43.80
2017-12-06T07:36:30.828Z,43.70
2017-12-06T07:37:35.579Z,43.70
2017-12-06T07:38:40.277Z,44.30
2017-12-06T07:39:45.164Z,44.70
2017-12-06T07:40:50.043Z,45.00
2017-12-06T07:41:54.937Z,45.40
2017-12-06T07:42:59.662Z,45.80
2017-12-06T07:44:04.556Z,45.90
2017-12-06T07:45:09.418Z,46.00
2017-12-06T07:46:14.755Z,46.20
2017-12-06T07:47:19.529Z,46.40
2017-12-06T07:48:25.414Z,46.60
2017-12-06T07:49:30.102Z,46.60
2017-12-06T07:50:34.784Z,46.70
2017-12-06T07:51:39.493Z,46.80
2017-12-06T07:52:44.193Z,46.80
2017-12-06T07:53:48.765Z,46.90
2017-12-06T07:54:53.640Z,47.00
2017-12-06T07:55:58.301Z,47.90
2017-12-06T07:57:03.025Z,47.20
2017-12-06T07:58:07.560Z,47.20
2017-12-06T07:59:12.445Z,47.30
2017-12-06T08:00:17.208Z,47.30
2017-12-06T08:01:22.050Z,47.40
2017-12-06T08:02:26.893Z,47.50
2017-12-06T08:03:31.587Z,47.50
2017-12-06T08:04:36.288Z,48.30
2017-12-06T08:05:41.000Z,47.60
2017-12-06T08:06:45.838Z,47.60
2017-12-06T08:07:50.576Z,47.70
2017-12-06T08:08:55.447Z,47.70
2017-12-06T08:09:59.974Z,47.70
2017-12-06T08:11:04.675Z,47.70
2017-12-06T08:12:09.333Z,47.60
2017-12-06T08:13:14.161Z,47.70
2017-12-06T08:14:18.847Z,47.80
2017-12-06T08:15:23.693Z,48.00
2017-12-06T08:16:28.433Z,48.10
2017-12-06T08:17:33.122Z,48.10
2017-12-06T08:18:38.121Z,48.10
2017-12-06T08:19:42.939Z,48.20
2017-12-06T08:20:47.809Z,48.20
2017-12-06T08:21:52.412Z,48.30
2017-12-06T08:22:57.102Z,48.30
2017-12-06T08:24:01.807Z,48.40
2017-12-06T08:25:06.499Z,48.40
2017-12-06T08:26:11.121Z,48.40
2017-12-06T08:27:15.773Z,48.50
2017-12-06T08:28:20.659Z,48.50
2017-12-06T08:29:25.304Z,48.50
2017-12-06T08:30:30.254Z,48.60
2017-12-06T08:31:35.112Z,48.70
2017-12-06T08:32:39.914Z,48.70
2017-12-06T08:33:44.553Z,49.40
2017-12-06T08:34:49.140Z,48.80
2017-12-06T08:35:53.677Z,48.80
2017-12-06T08:36:58.787Z,48.80
2017-12-06T08:38:03.310Z,48.80
2017-12-06T08:39:08.079Z,48.80
2017-12-06T08:40:12.742Z,48.90
2017-12-06T08:41:17.427Z,48.90
2017-12-06T08:42:22.382Z,48.90
2017-12-06T08:43:27.104Z,48.90
2017-12-06T08:44:31.805Z,48.90
2017-12-06T08:45:36.636Z,49.00
2017-12-06T08:46:41.385Z,49.00
2017-12-06T08:47:46.100Z,49.00
2017-12-06T08:48:50.819Z,49.00
2017-12-06T08:49:55.556Z,49.10
2017-12-06T08:51:00.328Z,49.10
2017-12-06T08:52:05.043Z,49.10
2017-12-06T08:53:10.085Z,49.10
2017-12-06T08:54:14.681Z,49.10
2017-12-06T08:55:19.669Z,49.10
2017-12-06T08:56:24.472Z,49.20
2017-12-06T08:57:29.216Z,49.10
2017-12-06T08:58:33.983Z,49.10
2017-12-06T08:59:38.564Z,49.10
2017-12-06T09:00:43.387Z,49.00
2017-12-06T09:01:48.070Z,49.20
2017-12-06T09:02:52.608Z,49.10
2017-12-06T09:03:57.362Z,49.00
2017-12-06T09:05:02.083Z,49.00
2017-12-06T09:06:06.798Z,49.10
2017-12-06T09:07:11.368Z,49.00
2017-12-06T09:08:16.198Z,48.80
2017-12-06T09:09:21.104Z,48.70
2017-12-06T09:10:25.924Z,48.60
2017-12-06T09:11:30.473Z,48.60
2017-12-06T09:12:35.026Z,48.60
2017-12-06T09:13:39.730Z,48.70
2017-12-06T09:14:44.432Z,48.60
2017-12-06T09:15:49.369Z,48.80
2017-12-06T09:16:54.100Z,48.90
2017-12-06T09:17:58.803Z,48.90
2017-12-06T09:19:07.096Z,49.00
2017-12-06T09:20:11.980Z,49.00
2017-12-06T09:21:16.757Z,49.00
2017-12-06T09:22:21.462Z,49.00
2017-12-06T09:23:26.166Z,49.00
2017-12-06T09:24:30.881Z,49.00
2017-12-06T09:25:35.476Z,49.00
2017-12-06T09:26:40.537Z,49.00
2017-12-06T09:27:45.241Z,49.10
2017-12-06T09:28:50.079Z,49.20
2017-12-06T09:29:54.809Z,49.30
2017-12-06T09:30:59.407Z,49.10
2017-12-06T09:32:04.329Z,49.20
2017-12-06T09:33:09.050Z,49.20
2017-12-06T09:34:13.808Z,49.20
2017-12-06T09:35:18.483Z,49.20
2017-12-06T09:36:23.303Z,49.20
2017-12-06T09:37:27.934Z,49.30
2017-12-06T09:38:32.622Z,49.30
2017-12-06T09:39:37.353Z,49.40
2017-12-06T09:40:41.913Z,49.60
2017-12-06T09:41:46.467Z,49.50
2017-12-06T09:42:51.159Z,49.40
2017-12-06T09:43:58.287Z,49.40
2017-12-06T09:45:03.405Z,49.50
2017-12-06T09:46:08.128Z,49.40
2017-12-06T09:47:13.357Z,49.60
2017-12-06T09:48:18.202Z,50.00
2017-12-06T09:49:22.882Z,49.90
2017-12-06T09:50:27.814Z,49.90
2017-12-06T09:51:32.390Z,49.70
2017-12-06T09:52:37.097Z,49.60
2017-12-06T09:53:41.636Z,49.60
2017-12-06T09:54:46.338Z,49.60
2017-12-06T09:55:51.084Z,49.70
2017-12-06T09:56:56.972Z,50.00
2017-12-06T09:58:01.868Z,49.80
2017-12-06T09:59:06.775Z,49.70
2017-12-06T10:00:11.507Z,49.70
2017-12-06T10:01:16.249Z,49.60
2017-12-06T10:02:21.384Z,49.60
2017-12-06T10:03:25.887Z,49.70
2017-12-06T10:04:30.596Z,49.70
2017-12-06T10:05:35.166Z,49.70
2017-12-06T10:06:39.998Z,49.70
2017-12-06T10:07:44.694Z,49.70
2017-12-06T10:08:49.587Z,49.80
2017-12-06T10:09:54.275Z,49.70
2017-12-06T10:10:58.919Z,49.80
2017-12-06T10:12:03.486Z,49.80
2017-12-06T10:13:08.645Z,49.50
2017-12-06T10:14:13.572Z,49.20
2017-12-06T10:15:18.171Z,49.40
2017-12-06T10:16:22.903Z,49.60
2017-12-06T10:17:27.638Z,49.90
2017-12-06T10:18:32.299Z,50.00
2017-12-06T10:19:36.985Z,50.10
2017-12-06T10:20:41.669Z,50.20
2017-12-06T10:21:46.225Z,50.00
2017-12-06T10:22:50.809Z,49.90
2017-12-06T10:23:55.355Z,49.80
2017-12-06T10:25:00.081Z,49.80
2017-12-06T10:26:04.815Z,49.90
2017-12-06T10:27:09.605Z,50.00
2017-12-06T10:28:14.348Z,50.00
2017-12-06T10:29:19.036Z,50.10
2017-12-06T10:30:23.933Z,50.20
2017-12-06T10:31:28.483Z,50.20
2017-12-06T10:32:33.355Z,50.20
2017-12-06T10:33:38.079Z,50.20
2017-12-06T10:34:42.922Z,50.10
2017-12-06T10:35:47.778Z,50.10
2017-12-06T10:36:52.293Z,50.20
2017-12-06T10:37:57.121Z,50.30
2017-12-06T10:39:01.971Z,50.20
2017-12-06T10:40:06.834Z,50.10
2017-12-06T10:41:11.588Z,49.90
2017-12-06T10:42:16.289Z,50.00
2017-12-06T10:43:21.167Z,50.10
2017-12-06T10:44:26.308Z,50.00
2017-12-06T10:45:31.143Z,50.10
2017-12-06T10:46:36.768Z,50.10
2017-12-06T10:47:42.301Z,49.90
2017-12-06T10:48:47.846Z,50.00
2017-12-06T10:49:52.982Z,49.90
2017-12-06T10:50:57.821Z,49.90
2017-12-06T10:52:02.503Z,49.90
2017-12-06T10:53:07.863Z,49.90
2017-12-06T10:54:12.749Z,49.80
2017-12-06T10:55:17.472Z,49.80
2017-12-06T10:56:22.564Z,49.80
2017-12-06T10:57:27.473Z,49.90
2017-12-06T10:58:32.433Z,49.60
2017-12-06T10:59:37.721Z,49.60
2017-12-06T11:00:42.355Z,49.50
2017-12-06T11:01:47.319Z,49.50
2017-12-06T11:02:52.067Z,49.40
2017-12-06T11:03:56.606Z,49.40
2017-12-06T11:05:01.178Z,49.30
2017-12-06T11:06:05.976Z,49.60
2017-12-06T11:07:10.575Z,49.40
2017-12-06T11:08:15.312Z,49.20
2017-12-06T11:09:20.118Z,49.20
2017-12-06T11:10:24.736Z,49.10
2017-12-06T11:11:29.294Z,49.00
2017-12-06T11:12:34.066Z,49.10
2017-12-06T11:13:38.892Z,49.10
2017-12-06T11:14:43.862Z,49.30
2017-12-06T11:15:48.640Z,49.40
2017-12-06T11:16:53.219Z,49.60
2017-12-06T11:17:58.061Z,49.60
2017-12-06T11:19:03.116Z,49.60
2017-12-06T11:20:07.832Z,49.60
2017-12-06T11:21:12.734Z,49.70
2017-12-06T11:22:17.459Z,49.70
2017-12-06T11:23:22.237Z,49.90
2017-12-06T11:24:27.062Z,50.00
2017-12-06T11:25:31.687Z,50.00
2017-12-06T11:26:36.600Z,50.10
2017-12-06T11:27:41.357Z,50.10
2017-12-06T11:28:45.900Z,50.20
2017-12-06T11:29:50.603Z,50.30
2017-12-06T11:30:55.428Z,50.40
2017-12-06T11:32:00.319Z,50.50
2017-12-06T11:33:05.036Z,50.60
2017-12-06T11:34:09.794Z,50.70
2017-12-06T11:35:14.499Z,50.70
2017-12-06T11:36:19.175Z,50.70
2017-12-06T11:37:23.729Z,50.70
2017-12-06T11:38:28.460Z,50.80
2017-12-06T11:39:33.061Z,50.90
2017-12-06T11:40:37.822Z,50.90
2017-12-06T11:41:42.652Z,51.00
2017-12-06T11:42:48.449Z,51.00
2017-12-06T11:43:53.130Z,51.10
2017-12-06T11:44:57.808Z,51.10
2017-12-06T11:46:02.679Z,51.10
2017-12-06T11:47:07.520Z,51.10
2017-12-06T11:48:12.070Z,51.10
2017-12-06T11:49:16.792Z,51.00
2017-12-06T11:50:21.333Z,51.00
2017-12-06T11:51:26.010Z,51.00
2017-12-06T11:52:30.740Z,51.00
2017-12-06T11:53:35.445Z,51.00
2017-12-06T11:54:40.191Z,51.00
2017-12-06T11:55:44.934Z,51.00
2017-12-06T11:56:49.635Z,51.00
2017-12-06T11:57:55.392Z,51.00
2017-12-06T11:58:59.993Z,51.70
2017-12-06T12:00:04.703Z,51.10
2017-12-06T12:01:09.530Z,51.10
2017-12-06T12:02:14.234Z,51.10
2017-12-06T12:03:18.853Z,51.10
2017-12-06T12:04:23.717Z,51.10
2017-12-06T12:05:28.425Z,51.10
2017-12-06T12:06:33.285Z,51.10
2017-12-06T12:07:37.909Z,51.10
2017-12-06T12:08:42.762Z,51.00
2017-12-06T12:09:47.623Z,51.10
2017-12-06T12:10:52.482Z,51.20
2017-12-06T12:11:57.404Z,51.20
2017-12-06T12:13:01.968Z,51.20
2017-12-06T12:14:06.524Z,51.20
2017-12-06T12:15:11.153Z,51.10
2017-12-06T12:16:15.845Z,51.20
2017-12-06T12:17:20.567Z,51.20
2017-12-06T12:18:25.161Z,51.20
2017-12-06T12:19:30.400Z,51.20
2017-12-06T12:20:34.974Z,51.30
2017-12-06T12:21:39.626Z,51.20
2017-12-06T12:22:44.207Z,51.30
2017-12-06T12:23:48.913Z,51.30
2017-12-06T12:24:53.789Z,51.30
2017-12-06T12:25:58.513Z,51.30
2017-12-06T12:27:03.406Z,51.30
2017-12-06T12:28:08.399Z,51.40
2017-12-06T12:29:13.065Z,51.40
2017-12-06T12:30:17.818Z,51.40
2017-12-06T12:31:22.641Z,51.70
2017-12-06T12:32:27.639Z,51.50
2017-12-06T12:33:32.225Z,51.50
2017-12-06T12:34:37.102Z,51.50
2017-12-06T12:35:41.764Z,51.50
2017-12-06T12:36:46.524Z,51.50
2017-12-06T12:37:51.432Z,51.50
2017-12-06T12:38:56.464Z,51.50
2017-12-06T12:40:01.207Z,51.60
2017-12-06T12:41:06.074Z,51.60
2017-12-06T12:42:10.909Z,51.60
2017-12-06T12:43:16.476Z,51.60
2017-12-06T12:44:21.246Z,51.60
2017-12-06T12:45:26.016Z,51.60
2017-12-06T12:46:31.154Z,51.60
2017-12-06T12:47:35.873Z,51.60
2017-12-06T12:48:40.657Z,51.60
2017-12-06T12:49:45.571Z,51.70
2017-12-06T12:50:50.272Z,51.70
2017-12-06T12:51:55.091Z,51.70
2017-12-06T12:52:59.927Z,51.70
2017-12-06T12:54:04.582Z,51.70
2017-12-06T12:55:09.758Z,51.70
2017-12-06T12:56:14.500Z,51.80
2017-12-06T12:57:19.211Z,51.80
2017-12-06T12:58:23.809Z,51.80
2017-12-06T12:59:29.240Z,51.80
2017-12-06T13:00:34.149Z,51.80
2017-12-06T13:01:38.940Z,51.80
2017-12-06T13:02:43.728Z,51.80
2017-12-06T13:03:48.476Z,51.80
2017-12-06T13:04:53.219Z,51.80
2017-12-06T13:05:58.084Z,51.90
2017-12-06T13:07:02.729Z,51.90
2017-12-06T13:08:07.455Z,51.90
2017-12-06T13:09:12.330Z,51.90
2017-12-06T13:10:16.956Z,51.90
2017-12-06T13:11:21.663Z,51.90
2017-12-06T13:12:26.570Z,51.90
2017-12-06T13:13:31.516Z,51.90
2017-12-06T13:14:36.223Z,51.90
2017-12-06T13:15:40.909Z,51.90
2017-12-06T13:16:45.750Z,51.80
2017-12-06T13:17:50.427Z,51.90
2017-12-06T13:18:55.165Z,51.90
2017-12-06T13:19:59.899Z,51.90
2017-12-06T13:21:04.627Z,51.90
2017-12-06T13:22:09.375Z,51.90
2017-12-06T13:23:14.072Z,52.00
2017-12-06T13:24:18.846Z,51.90
2017-12-06T13:25:23.642Z,52.00
2017-12-06T13:26:28.383Z,52.00
2017-12-06T13:27:32.920Z,52.00
2017-12-06T13:28:37.589Z,52.00
2017-12-06T13:29:42.235Z,51.90
2017-12-06T13:30:47.048Z,52.00
2017-12-06T13:31:51.605Z,52.00
2017-12-06T13:32:56.192Z,52.00
2017-12-06T13:34:00.989Z,52.00
2017-12-06T13:35:05.815Z,52.00
2017-12-06T13:36:10.505Z,52.00
2017-12-06T13:37:15.334Z,51.90
2017-12-06T13:38:20.195Z,52.00
2017-12-06T13:39:24.922Z,52.00
2017-12-06T13:40:29.685Z,51.90
2017-12-06T13:41:34.255Z,51.90
2017-12-06T13:42:39.089Z,52.00
2017-12-06T13:43:43.820Z,51.90
2017-12-06T13:44:48.493Z,51.90
2017-12-06T13:45:53.222Z,51.90
2017-12-06T13:46:57.887Z,51.90
2017-12-06T13:48:02.754Z,51.90
2017-12-06T13:49:07.625Z,51.90
2017-12-06T13:50:12.490Z,51.90
2017-12-06T13:51:17.089Z,51.90
2017-12-06T13:52:22.119Z,51.90
2017-12-06T13:53:26.693Z,52.00
2017-12-06T13:54:31.413Z,52.00